Time;durP1;ratioP1;P1;durP2;ratioP2;P2;SDS_P1;SDS_P2;PMS_P1;PMS_P2;Temp;Humidity;BMP_temperature;BMP_pressure;BME280_temperature;BME280_humidity;BME280_pressure;Samples;Min_cycle;Max_cycle;Signal;HPM_P1;HPM_P2
2022/01/03 00:01:05;;;;;;;110.83;22.90;;;;;;;9.38;100.00;97909.84;5080532;28;20639;-66
2022/01/03 00:03:31;;;;;;;43.97;14.00;;;;;;;9.05;100.00;97907.44;5077313;28;20599;-65
2022/01/03 00:05:59;;;;;;;56.20;9.60;;;;;;;8.72;100.00;97902.34;5077039;28;20638;-65
2022/01/03 00:08:28;;;;;;;94.13;9.97;;;;;;;8.48;100.00;97896.50;5080664;28;20619;-65
2022/01/03 00:10:56;;;;;;;49.23;7.90;;;;;;;8.21;100.00;97900.91;5080688;28;20613;-66
2022/01/03 00:13:23;;;;;;;32.27;6.80;;;;;;;8.02;100.00;97895.91;5077649;28;20606;-66
2022/01/03 00:15:52;;;;;;;63.73;8.37;;;;;;;8.15;100.00;97897.41;5077255;28;20706;-65
2022/01/03 00:18:19;;;;;;;52.37;9.27;;;;;;;7.76;100.00;97898.47;5079552;28;20737;-66
2022/01/03 00:20:56;;;;;;;71.50;9.33;;;;;;;8.20;100.00;97881.47;5080621;28;20621;-64
2022/01/03 00:23:27;;;;;;;65.23;9.07;;;;;;;7.98;100.00;97878.81;5065749;28;20633;-65
2022/01/03 00:25:59;;;;;;;42.17;7.20;;;;;;;7.94;100.00;97874.25;5075783;28;20652;-65
2022/01/03 00:28:33;;;;;;;76.83;11.73;;;;;;;8.34;100.00;97880.09;5080563;28;20674;-65
2022/01/03 00:31:00;;;;;;;57.03;8.60;;;;;;;8.12;100.00;97871.28;5080516;28;20681;-65
2022/01/03 00:33:28;;;;;;;35.80;8.03;;;;;;;8.03;100.00;97867.47;5068956;28;21429;-66
2022/01/03 00:35:58;;;;;;;34.00;7.80;;;;;;;7.94;100.00;97877.72;5076796;28;20611;-65
2022/01/03 00:38:28;;;;;;;54.60;7.70;;;;;;;7.66;100.00;97887.69;5080065;28;20598;-66
2022/01/03 00:40:56;;;;;;;46.20;6.70;;;;;;;7.61;100.00;97880.47;5080025;28;20603;-65
2022/01/03 00:43:22;;;;;;;19.07;7.60;;;;;;;7.47;100.00;97882.66;5077473;28;20602;-65
2022/01/03 00:45:52;;;;;;;62.23;8.23;;;;;;;7.49;100.00;97877.09;5080096;28;20747;-65
2022/01/03 00:48:19;;;;;;;56.50;8.03;;;;;;;7.85;100.00;97873.06;5082929;28;20587;-65
2022/01/03 00:50:46;;;;;;;49.37;8.93;;;;;;;8.00;100.00;97859.97;5084196;28;20612;-66
2022/01/03 00:53:13;;;;;;;67.20;7.70;;;;;;;7.95;100.00;97867.91;5070231;28;20611;-66
2022/01/03 00:55:56;;;;;;;93.47;9.83;;;;;;;8.17;100.00;97874.00;5080341;28;20603;-66
2022/01/03 00:58:27;;;;;;;70.37;8.63;;;;;;;7.86;100.00;97872.03;5083423;28;20631;-65
2022/01/03 01:00:55;;;;;;;95.20;10.03;;;;;;;8.12;100.00;97866.78;5083784;28;20605;-66
2022/01/03 01:03:33;;;;;;;43.73;6.63;;;;;;;7.48;100.00;97865.69;5080982;28;20602;-66
2022/01/03 01:06:03;;;;;;;69.80;7.27;;;;;;;7.92;100.00;97860.41;5080040;28;20634;-66
2022/01/03 01:08:32;;;;;;;81.80;8.33;;;;;;;7.43;100.00;97854.16;5072385;28;20625;-64
2022/01/03 01:11:02;;;;;;;22.63;5.20;;;;;;;7.44;100.00;97861.88;5079994;28;20614;-64
2022/01/03 01:13:28;;;;;;;49.40;7.37;;;;;;;7.47;100.00;97865.91;5072155;28;20594;-65
2022/01/03 01:15:55;;;;;;;54.70;8.17;;;;;;;7.21;100.00;97859.41;5080110;28;20633;-64
2022/01/03 01:18:23;;;;;;;50.77;7.57;;;;;;;7.10;100.00;97849.69;5082684;28;20631;-64
2022/01/03 01:20:50;;;;;;;47.00;6.60;;;;;;;7.30;100.00;97862.47;5083517;28;20609;-65
2022/01/03 01:23:17;;;;;;;41.07;7.07;;;;;;;7.38;100.00;97854.09;5069362;28;20595;-65
2022/01/03 01:28:29;;;;;;;45.93;5.53;;;;;;;7.43;100.00;97841.66;5071891;28;20603;-64
2022/01/03 01:31:00;;;;;;;74.83;7.37;;;;;;;7.63;100.00;97845.66;5079625;28;20634;-65
2022/01/03 01:33:32;;;;;;;54.40;6.40;;;;;;;7.88;100.00;97849.47;5071656;28;20590;-65
2022/01/03 01:36:02;;;;;;;75.97;8.50;;;;;;;7.63;100.00;97835.03;5079797;28;20614;-65
2022/01/03 01:38:31;;;;;;;47.70;7.07;;;;;;;7.54;100.00;97843.44;5071769;28;20616;-64
2022/01/03 01:41:01;;;;;;;29.83;6.07;;;;;;;7.58;100.00;97839.22;5079632;28;20630;-66
2022/01/03 01:43:36;;;;;;;62.17;8.10;;;;;;;7.82;100.00;97839.81;5071670;28;21126;-64
2022/01/03 01:46:05;;;;;;;58.10;6.83;;;;;;;7.80;100.00;97835.81;5079396;28;20741;-64
2022/01/03 01:48:36;;;;;;;46.57;7.27;;;;;;;7.73;100.00;97824.53;5083152;28;20613;-64
2022/01/03 01:51:04;;;;;;;62.50;14.10;;;;;;;8.12;100.00;97821.56;5082844;28;20623;-64
2022/01/03 01:53:31;;;;;;;52.90;10.03;;;;;;;8.09;100.00;97813.28;5067349;28;20602;-65
2022/01/03 01:56:00;;;;;;;90.17;14.40;;;;;;;8.45;100.00;97825.91;5078854;28;20610;-64
2022/01/03 01:58:30;;;;;;;104.97;35.37;;;;;;;8.61;100.00;97819.69;5082729;28;20589;-65
2022/01/03 02:01:00;;;;;;;98.20;31.53;;;;;;;8.77;100.00;97811.84;5082876;28;20613;-65
2022/01/03 02:03:37;;;;;;;52.10;18.30;;;;;;;8.80;100.00;97808.66;5071122;28;20660;-65
2022/01/03 02:06:16;;;;;;;165.80;56.40;;;;;;;8.85;100.00;97816.72;5079220;28;20626;-65
2022/01/03 02:08:51;;;;;;;96.73;30.07;;;;;;;8.90;100.00;97801.59;5082759;28;21082;-66
2022/01/03 02:11:27;;;;;;;62.07;13.13;;;;;;;8.90;100.00;97803.44;5080462;28;20639;-64
2022/01/03 02:13:54;;;;;;;138.77;39.23;;;;;;;8.94;100.00;97809.88;5079029;28;20610;-64
2022/01/03 02:16:23;;;;;;;85.03;24.23;;;;;;;8.99;100.00;97801.91;5077880;28;20614;-64
2022/01/03 02:18:50;;;;;;;167.57;54.73;;;;;;;8.87;100.00;97810.06;5078939;28;20602;-64
2022/01/03 02:21:19;;;;;;;86.00;30.27;;;;;;;8.97;100.00;97806.69;5080941;28;20614;-64
2022/01/03 02:23:46;;;;;;;64.53;13.90;;;;;;;9.04;100.00;97815.25;5072381;28;20602;-64
2022/01/03 02:26:13;;;;;;;153.37;36.60;;;;;;;9.04;100.00;97816.06;5080286;28;20646;-65
2022/01/03 02:28:39;;;;;;;94.70;32.13;;;;;;;9.06;100.00;97815.81;5082567;28;20608;-65
2022/01/03 02:31:06;;;;;;;162.40;50.67;;;;;;;9.04;100.00;97821.38;5081649;28;20605;-65
2022/01/03 02:33:33;;;;;;;113.80;38.63;;;;;;;9.05;100.00;97822.19;5078820;28;20614;-64
2022/01/03 02:36:01;;;;;;;166.30;45.27;;;;;;;9.01;100.00;97821.09;5078550;28;20611;-65
2022/01/03 02:38:29;;;;;;;100.00;37.80;;;;;;;8.97;100.00;97812.84;5070548;28;20609;-66
2022/01/03 02:40:56;;;;;;;112.93;31.03;;;;;;;8.83;100.00;97802.84;5078309;28;20633;-65
2022/01/03 02:43:23;;;;;;;135.00;27.83;;;;;;;8.95;100.00;97800.81;5081261;28;20606;-64
2022/01/03 02:45:50;;;;;;;102.17;30.77;;;;;;;8.88;100.00;97797.56;5081461;28;20683;-64
2022/01/03 02:48:17;;;;;;;104.63;32.23;;;;;;;8.99;100.00;97780.59;5079759;28;20614;-66
2022/01/03 02:50:43;;;;;;;142.27;41.83;;;;;;;8.95;100.00;97787.47;5078246;28;20617;-64
2022/01/03 02:53:10;;;;;;;107.80;28.57;;;;;;;9.03;100.00;97785.19;5074013;28;20691;-65
2022/01/03 02:55:38;;;;;;;81.13;7.93;;;;;;;9.07;100.00;97783.59;5078284;28;20610;-65
2022/01/03 02:58:07;;;;;;;85.27;26.30;;;;;;;9.01;100.00;97794.44;5078423;28;20610;-65
2022/01/03 03:00:44;;;;;;;122.03;36.37;;;;;;;9.02;100.00;97796.06;5081637;28;21000;-65
2022/01/03 03:03:11;;;;;;;35.87;11.00;;;;;;;9.18;100.00;97811.09;5080370;28;21031;-64
2022/01/03 03:05:38;;;;;;;132.37;33.70;;;;;;;9.07;100.00;97804.09;5078243;28;20602;-65
2022/01/03 03:08:05;;;;;;;102.53;18.53;;;;;;;9.07;100.00;97799.56;5077462;28;20733;-65
2022/01/03 03:10:32;;;;;;;122.10;29.07;;;;;;;9.07;100.00;97785.44;5081534;28;20617;-66
2022/01/03 03:13:00;;;;;;;172.03;49.83;;;;;;;9.05;100.00;97783.03;5081397;28;20659;-64
2022/01/03 03:15:26;;;;;;;127.13;35.83;;;;;;;9.02;100.00;97782.75;5077932;28;20606;-65
2022/01/03 03:17:53;;;;;;;106.53;31.03;;;;;;;9.06;100.00;97767.88;5077975;28;20626;-65
2022/01/03 03:20:22;;;;;;;167.13;40.83;;;;;;;9.09;100.00;97776.16;5080462;28;20686;-65
2022/01/03 03:22:50;;;;;;;93.47;22.03;;;;;;;9.04;100.00;97778.78;5072670;28;20637;-65
2022/01/03 03:25:19;;;;;;;107.37;33.73;;;;;;;9.11;100.00;97778.56;5076406;28;20639;-64
2022/01/03 03:27:47;;;;;;;109.00;21.47;;;;;;;9.17;100.00;97780.19;5077625;28;20646;-65
2022/01/03 03:30:19;;;;;;;55.47;17.33;;;;;;;9.12;100.00;97777.50;5079296;28;20610;-65
2022/01/03 03:32:46;;;;;;;71.27;19.83;;;;;;;9.12;100.00;97788.97;5081271;28;20612;-65
2022/01/03 03:35:13;;;;;;;60.77;12.80;;;;;;;9.22;100.00;97801.56;5079575;28;20590;-65
2022/01/03 03:37:40;;;;;;;79.07;6.23;;;;;;;9.28;100.00;97810.38;5077739;28;20610;-65
2022/01/03 03:40:08;;;;;;;62.10;9.90;;;;;;;9.27;100.00;97820.22;5078105;28;20664;-64
2022/01/03 03:42:35;;;;;;;47.27;7.40;;;;;;;9.40;100.00;97901.59;5080115;28;20604;-64
2022/01/03 03:45:03;;;;;;;60.40;5.77;;;;;;;9.39;100.00;97923.97;5080652;28;20898;-65
2022/01/03 03:47:31;;;;;;;94.67;5.23;;;;;;;9.30;100.00;97938.81;5069465;28;20645;-65
2022/01/03 03:49:57;;;;;;;65.83;4.63;;;;;;;9.17;100.00;97934.72;5077472;28;20618;-64
2022/01/03 03:52:24;;;;;;;30.57;3.40;;;;;;;9.13;100.00;97925.63;5077557;28;20602;-65
2022/01/03 03:54:51;;;;;;;63.40;3.00;;;;;;;9.12;100.00;97942.69;5071867;28;20635;-65
2022/01/03 03:57:18;;;;;;;67.43;3.87;;;;;;;9.04;100.00;97948.44;5078648;28;20614;-65
2022/01/03 03:59:44;;;;;;;68.90;5.07;;;;;;;9.02;100.00;97940.72;5077413;28;20606;-65
2022/01/03 04:02:11;;;;;;;59.60;3.07;;;;;;;9.03;100.00;97950.31;5078249;28;20602;-65
2022/01/03 04:04:39;;;;;;;133.60;6.33;;;;;;;8.96;100.00;97962.22;5080565;28;20612;-65
2022/01/03 04:07:06;;;;;;;82.87;4.07;;;;;;;8.97;100.00;97966.50;5079849;28;20636;-65
2022/01/03 04:09:32;;;;;;;74.37;4.40;;;;;;;9.01;100.00;97975.59;5077325;28;20692;-65
2022/01/03 04:11:59;;;;;;;56.27;2.43;;;;;;;8.84;100.00;97966.91;5077126;28;20632;-64
2022/01/03 04:14:26;;;;;;;34.57;2.53;;;;;;;8.80;100.00;97979.09;5080392;28;20613;-64
2022/01/03 04:16:53;;;;;;;54.37;2.57;;;;;;;8.89;100.00;97969.59;5080594;28;20610;-64
2022/01/03 04:19:19;;;;;;;59.03;3.03;;;;;;;8.90;100.00;97963.22;5081161;28;20631;-65
2022/01/03 04:21:47;;;;;;;88.20;4.30;;;;;;;8.88;100.00;97960.03;5081238;28;20606;-65
2022/01/03 04:24:14;;;;;;;58.90;2.83;;;;;;;8.90;100.00;97972.03;5070303;28;20648;-65
2022/01/03 04:26:43;;;;;;;77.27;3.90;;;;;;;8.82;100.00;97971.69;5084547;28;20656;-64
2022/01/03 04:29:09;;;;;;;58.20;2.83;;;;;;;8.81;100.00;97968.19;5083125;28;20613;-65
2022/01/03 04:31:36;;;;;;;92.07;4.63;;;;;;;8.80;100.00;97973.75;5079780;28;20598;-64
2022/01/03 04:34:03;;;;;;;44.13;2.50;;;;;;;8.73;100.00;97963.31;5080844;28;20625;-64
2022/01/03 04:36:29;;;;;;;30.87;1.40;;;;;;;8.69;100.00;97959.56;5084337;28;20614;-64
2022/01/03 04:38:57;;;;;;;50.33;2.50;;;;;;;8.67;100.00;97943.81;5084199;28;20605;-64
2022/01/03 04:41:24;;;;;;;71.03;3.77;;;;;;;8.67;100.00;97962.44;5081277;28;20598;-64
2022/01/03 04:43:51;;;;;;;43.87;1.80;;;;;;;8.68;100.00;97961.41;5079425;28;20682;-64
2022/01/03 04:46:17;;;;;;;73.70;3.13;;;;;;;8.62;100.00;97956.25;5082635;28;20602;-64
2022/01/03 04:48:44;;;;;;;65.57;3.20;;;;;;;8.65;100.00;97961.91;5084107;28;20645;-65
2022/01/03 04:51:11;;;;;;;28.67;1.80;;;;;;;8.65;100.00;97956.56;5082854;28;20613;-65
2022/01/03 04:53:40;;;;;;;53.37;2.73;;;;;;;8.77;100.00;97953.78;5068352;28;20609;-65
2022/01/03 04:56:08;;;;;;;46.43;2.43;;;;;;;8.78;100.00;97959.91;5080872;28;20705;-65
2022/01/03 04:58:35;;;;;;;68.07;3.23;;;;;;;8.76;100.00;97973.44;5084033;28;20601;-63
2022/01/03 05:01:02;;;;;;;41.40;3.50;;;;;;;8.75;100.00;97961.22;5082811;28;20602;-65
2022/01/03 05:03:29;;;;;;;94.80;6.47;;;;;;;8.75;100.00;97963.88;5072229;28;20606;-65
2022/01/03 05:05:55;;;;;;;25.17;2.20;;;;;;;8.72;100.00;97984.88;5080098;28;20614;-65
2022/01/03 05:08:22;;;;;;;80.60;3.57;;;;;;;8.73;100.00;97967.84;5082875;28;20641;-65
2022/01/03 05:10:49;;;;;;;61.17;3.03;;;;;;;8.68;100.00;97976.56;5083639;28;20605;-65
2022/01/03 05:13:17;;;;;;;71.90;4.43;;;;;;;8.74;100.00;97988.06;5081567;28;20605;-64
2022/01/03 05:15:43;;;;;;;68.27;3.00;;;;;;;8.72;100.00;97966.22;5080042;28;20632;-64
2022/01/03 05:18:10;;;;;;;29.23;2.60;;;;;;;8.78;100.00;97981.19;5080919;28;20610;-65
2022/01/03 05:20:36;;;;;;;34.37;2.00;;;;;;;8.80;100.00;97995.88;5083461;28;20631;-64
2022/01/03 05:23:03;;;;;;;90.10;4.67;;;;;;;8.72;100.00;97987.53;5070841;28;20606;-64
2022/01/03 05:25:30;;;;;;;71.13;3.70;;;;;;;8.74;100.00;97980.09;5079912;28;20614;-65
2022/01/03 05:27:56;;;;;;;63.20;3.40;;;;;;;8.71;100.00;97980.59;5079717;28;20674;-64
2022/01/03 05:30:24;;;;;;;34.93;1.90;;;;;;;8.75;100.00;97976.38;5081619;28;20618;-65
2022/01/03 05:32:51;;;;;;;52.50;2.73;;;;;;;8.74;100.00;97964.09;5083151;28;20608;-64
2022/01/03 05:35:18;;;;;;;38.17;2.70;;;;;;;8.87;100.00;97948.56;5080793;28;20624;-65
2022/01/03 05:37:44;;;;;;;55.10;3.30;;;;;;;8.82;100.00;97956.47;5079692;28;20613;-65
2022/01/03 05:40:12;;;;;;;44.30;4.63;;;;;;;8.75;100.00;97955.88;5080649;28;21366;-64
2022/01/03 05:42:40;;;;;;;23.40;1.57;;;;;;;8.82;100.00;97955.69;5083184;28;20598;-65
2022/01/03 05:45:08;;;;;;;39.90;3.53;;;;;;;8.70;100.00;97957.69;5081864;28;20649;-65
2022/01/03 05:47:36;;;;;;;100.07;7.83;;;;;;;8.75;100.00;97976.38;5079319;28;20675;-65
2022/01/03 05:50:03;;;;;;;109.57;5.30;;;;;;;8.74;100.00;97977.41;5079252;28;20610;-64
2022/01/03 05:52:30;;;;;;;66.13;4.50;;;;;;;8.71;100.00;97988.56;5079025;28;20606;-65
2022/01/03 05:54:57;;;;;;;68.37;7.20;;;;;;;8.72;100.00;97976.88;5074615;28;20628;-65
2022/01/03 05:57:23;;;;;;;66.73;3.20;;;;;;;8.79;100.00;97974.84;5079934;28;20641;-64
2022/01/03 05:59:50;;;;;;;90.57;4.60;;;;;;;8.79;100.00;97982.81;5079189;28;20595;-64
2022/01/03 06:02:17;;;;;;;48.07;2.30;;;;;;;8.80;100.00;97979.09;5081037;28;20602;-65
2022/01/03 06:04:56;;;;;;;107.73;5.10;;;;;;;8.79;100.00;97980.16;5082497;28;21205;-65
2022/01/03 06:07:22;;;;;;;73.47;3.77;;;;;;;8.77;100.00;97982.25;5079688;28;20642;-65
2022/01/03 06:09:50;;;;;;;45.47;1.90;;;;;;;8.74;100.00;97974.75;5079155;28;20609;-65
2022/01/03 06:12:17;;;;;;;65.50;2.80;;;;;;;8.72;100.00;97967.03;5080868;28;20599;-64
2022/01/03 06:14:44;;;;;;;74.30;3.30;;;;;;;8.64;100.00;97965.59;5082401;28;20608;-65
2022/01/03 06:17:11;;;;;;;69.97;3.03;;;;;;;8.76;100.00;97967.34;5081287;28;20627;-64
2022/01/03 06:19:38;;;;;;;78.70;4.10;;;;;;;8.84;100.00;97958.91;5078900;28;20620;-64
2022/01/03 06:22:07;;;;;;;43.90;5.57;;;;;;;8.90;100.00;97952.56;5078860;28;20619;-65
2022/01/03 06:24:34;;;;;;;58.73;3.97;;;;;;;8.90;100.00;97952.56;5078248;28;20609;-65
2022/01/03 06:27:00;;;;;;;50.67;4.23;;;;;;;8.94;100.00;97964.34;5081930;28;20647;-66
2022/01/03 06:29:27;;;;;;;78.83;6.40;;;;;;;9.03;100.00;97976.97;5078779;28;20602;-65
2022/01/03 06:31:53;;;;;;;24.70;2.53;;;;;;;8.92;100.00;97972.56;5078485;28;21185;-65
2022/01/03 06:34:20;;;;;;;61.00;4.97;;;;;;;9.02;100.00;97982.53;5080772;28;20606;-64
2022/01/03 06:36:47;;;;;;;52.83;3.00;;;;;;;9.04;100.00;97985.72;5082072;28;20606;-65
2022/01/03 06:39:15;;;;;;;51.17;3.00;;;;;;;9.05;100.00;97971.38;5080268;28;20609;-65
2022/01/03 06:41:43;;;;;;;61.87;3.13;;;;;;;9.10;100.00;97968.75;5078693;28;20603;-65
2022/01/03 06:44:09;;;;;;;67.83;3.43;;;;;;;8.94;100.00;97954.50;5078972;28;20614;-64
2022/01/03 06:46:36;;;;;;;80.20;3.70;;;;;;;9.01;100.00;97949.75;5081723;28;20601;-65
2022/01/03 06:49:05;;;;;;;32.03;2.50;;;;;;;8.90;100.00;97953.38;5081339;28;20657;-66
2022/01/03 06:51:34;;;;;;;83.23;4.47;;;;;;;8.93;100.00;97950.22;5078213;28;20610;-65
2022/01/03 06:54:02;;;;;;;49.80;2.20;;;;;;;8.90;100.00;97947.25;5073958;28;20602;-64
2022/01/03 06:56:30;;;;;;;78.33;3.53;;;;;;;8.85;100.00;97945.31;5069936;28;20603;-64
2022/01/03 06:58:56;;;;;;;50.57;2.57;;;;;;;8.86;100.00;97962.91;5078094;28;20689;-65
2022/01/03 07:01:23;;;;;;;76.97;6.37;;;;;;;8.89;100.00;97974.94;5080855;28;20624;-64
2022/01/03 07:03:50;;;;;;;41.10;4.83;;;;;;;8.79;100.00;97945.53;5081406;28;20612;-64
2022/01/03 07:06:17;;;;;;;62.93;3.90;;;;;;;8.89;100.00;97946.44;5079328;28;20621;-64
2022/01/03 07:08:43;;;;;;;66.40;3.70;;;;;;;8.84;100.00;97953.56;5077819;28;20654;-65
2022/01/03 07:11:10;;;;;;;17.80;1.47;;;;;;;8.90;100.00;97958.72;5079031;28;20611;-65
2022/01/03 07:13:44;;;;;;;103.77;5.90;;;;;;;8.89;100.00;97958.94;5081382;28;21217;-64
2022/01/03 07:18:59;;;;;;;35.43;1.73;;;;;;;8.84;100.00;97953.56;5077820;28;20732;-65
2022/01/03 07:21:27;;;;;;;135.17;6.50;;;;;;;8.78;100.00;97955.38;5080832;28;20609;-64
2022/01/03 07:23:54;;;;;;;28.83;2.80;;;;;;;8.79;100.00;97956.19;5078532;28;20595;-65
2022/01/03 07:26:20;;;;;;;31.17;2.13;;;;;;;8.86;100.00;97962.09;5079965;28;20606;-65
2022/01/03 07:28:48;;;;;;;47.30;3.40;;;;;;;8.93;100.00;97966.19;5080843;28;20675;-65
2022/01/03 07:31:15;;;;;;;22.27;2.00;;;;;;;9.01;100.00;97965.72;5079278;28;20609;-65
2022/01/03 07:33:42;;;;;;;50.73;5.73;;;;;;;8.85;100.00;97973.84;5077496;28;20614;-64
2022/01/03 07:36:09;;;;;;;89.10;6.17;;;;;;;8.82;100.00;97963.69;5078281;28;20603;-65
2022/01/03 07:38:36;;;;;;;51.47;4.80;;;;;;;8.88;100.00;97970.69;5080887;28;20623;-65
2022/01/03 07:41:04;;;;;;;60.43;4.17;;;;;;;8.90;100.00;97969.38;5080837;28;20602;-65
2022/01/03 07:43:30;;;;;;;141.40;6.87;;;;;;;8.95;100.00;97966.75;5069564;28;20709;-65
2022/01/03 07:45:58;;;;;;;38.90;4.93;;;;;;;8.89;100.00;97966.94;5077056;28;20637;-66
2022/01/03 07:48:25;;;;;;;59.60;4.30;;;;;;;8.89;100.00;97967.75;5080365;28;20664;-64
2022/01/03 07:50:52;;;;;;;29.27;2.00;;;;;;;8.87;100.00;97961.06;5080779;28;20609;-64
2022/01/03 07:53:19;;;;;;;81.30;4.73;;;;;;;8.88;100.00;97965.34;5073704;28;21228;-64
2022/01/03 07:55:45;;;;;;;99.63;7.70;;;;;;;8.86;100.00;97956.78;5077124;28;20598;-64
2022/01/03 07:58:15;;;;;;;34.10;3.67;;;;;;;8.83;100.00;97960.75;5078439;28;20610;-65
2022/01/03 08:00:41;;;;;;;96.83;7.53;;;;;;;8.79;100.00;97961.53;5080579;28;20732;-65
2022/01/03 08:03:09;;;;;;;45.47;2.63;;;;;;;8.86;100.00;97954.13;5079892;28;20593;-65
2022/01/03 08:05:36;;;;;;;91.70;6.47;;;;;;;8.80;100.00;97958.59;5077254;28;20644;-66
2022/01/03 08:08:03;;;;;;;99.50;5.47;;;;;;;8.81;100.00;97954.88;5077052;28;20621;-64
2022/01/03 08:10:30;;;;;;;36.93;2.20;;;;;;;8.80;100.00;97955.94;5069104;28;20610;-64
2022/01/03 08:12:56;;;;;;;32.77;2.70;;;;;;;8.68;100.00;97950.75;5075566;28;20594;-64
2022/01/03 08:15:24;;;;;;;23.83;2.43;;;;;;;8.73;100.00;97965.97;5079779;28;20617;-65
2022/01/03 08:17:50;;;;;;;48.03;2.53;;;;;;;8.88;100.00;97954.69;5080575;28;20691;-65
2022/01/03 08:20:20;;;;;;;64.33;3.40;;;;;;;8.88;100.00;97960.03;5078286;28;20601;-65
2022/01/03 08:22:47;;;;;;;53.03;3.37;;;;;;;8.86;100.00;97959.44;5081188;28;20611;-66
2022/01/03 08:25:14;;;;;;;85.93;5.90;;;;;;;8.72;100.00;97961.72;5076914;28;20610;-65
2022/01/03 08:27:40;;;;;;;36.50;2.93;;;;;;;8.77;100.00;97952.97;5076882;28;20614;-65
2022/01/03 08:30:08;;;;;;;32.17;2.30;;;;;;;8.87;100.00;97958.41;5077540;28;20640;-65
2022/01/03 08:32:34;;;;;;;40.70;3.20;;;;;;;8.88;100.00;97963.47;5080338;28;20597;-65
2022/01/03 08:35:01;;;;;;;57.70;3.27;;;;;;;8.94;100.00;97964.34;5080458;28;20616;-65
2022/01/03 08:37:29;;;;;;;67.70;4.67;;;;;;;8.83;100.00;97952.75;5068729;28;20636;-65
2022/01/03 08:39:56;;;;;;;76.00;4.77;;;;;;;8.94;100.00;97953.69;5076814;28;20649;-65
2022/01/03 08:42:24;;;;;;;41.10;3.90;;;;;;;8.83;100.00;97954.63;5079589;28;20657;-65
2022/01/03 08:44:51;;;;;;;29.03;3.23;;;;;;;8.84;100.00;97958.91;5080168;28;20633;-65
2022/01/03 08:47:17;;;;;;;31.33;2.47;;;;;;;8.96;100.00;97968.34;5078147;28;21366;-65
2022/01/03 08:49:44;;;;;;;61.73;3.17;;;;;;;9.01;100.00;97957.75;5076627;28;20679;-65
2022/01/03 08:52:10;;;;;;;41.60;2.20;;;;;;;8.92;100.00;97966.44;5077426;28;20638;-65
2022/01/03 08:54:38;;;;;;;49.63;2.93;;;;;;;8.99;100.00;97967.03;5076211;28;20605;-65
2022/01/03 08:57:05;;;;;;;49.33;3.83;;;;;;;8.92;100.00;97961.91;5079719;28;20606;-65
2022/01/03 08:59:32;;;;;;;41.97;2.83;;;;;;;8.97;100.00;97963.84;5076742;28;20614;-65
2022/01/03 09:01:58;;;;;;;31.00;2.00;;;;;;;8.97;100.00;97969.16;5076477;28;20624;-65
2022/01/03 09:04:25;;;;;;;41.60;4.40;;;;;;;8.98;100.00;97962.75;5079617;28;20600;-64
2022/01/03 09:06:52;;;;;;;59.43;3.73;;;;;;;8.97;100.00;97961.19;5083305;28;20613;-65
2022/01/03 09:09:20;;;;;;;32.57;2.07;;;;;;;9.00;100.00;97974.00;5081343;28;20663;-65
2022/01/03 09:11:48;;;;;;;50.70;3.23;;;;;;;9.07;100.00;97972.72;5080134;28;20598;-64
2022/01/03 09:14:14;;;;;;;49.83;3.27;;;;;;;9.04;100.00;97967.09;5080415;28;20618;-64
2022/01/03 09:16:41;;;;;;;38.03;2.07;;;;;;;9.19;100.00;97972.59;5083496;28;20601;-64
2022/01/03 09:19:08;;;;;;;75.97;4.80;;;;;;;9.13;100.00;97976.22;5082591;28;20612;-65
2022/01/03 09:21:34;;;;;;;89.83;5.00;;;;;;;9.19;100.00;97988.56;5079759;28;20676;-64
2022/01/03 09:24:21;;;;;;;84.83;5.33;;;;;;;9.19;100.00;97985.91;5075678;28;20618;-64
2022/01/03 09:29:34;;;;;;;62.20;3.67;;;;;;;9.26;100.00;97988.34;5038885;28;20749;-65
2022/01/03 09:32:00;;;;;;;76.13;4.53;;;;;;;9.18;100.00;97995.75;5079605;28;20602;-65
2022/01/03 09:34:27;;;;;;;79.00;4.93;;;;;;;9.12;100.00;97983.44;5082711;28;20617;-65
2022/01/03 09:36:54;;;;;;;109.17;5.60;;;;;;;9.35;100.00;97982.31;5082707;28;20597;-65
2022/01/03 09:39:21;;;;;;;35.17;2.30;;;;;;;9.41;100.00;97986.63;5080577;28;20601;-65
2022/01/03 09:41:57;;;;;;;65.57;4.40;;;;;;;9.43;100.00;97989.88;5079851;28;20635;-65
2022/01/03 09:44:29;;;;;;;42.27;3.23;;;;;;;9.22;100.00;97990.75;5082198;28;20625;-64
2022/01/03 09:47:00;;;;;;;78.73;5.47;;;;;;;9.35;100.00;97987.63;5083002;28;20593;-65
2022/01/03 09:49:31;;;;;;;32.43;2.80;;;;;;;9.22;100.00;97988.84;5079757;28;20637;-65
2022/01/03 09:51:58;;;;;;;33.50;2.73;;;;;;;9.48;100.00;97989.91;5079410;28;20633;-64
2022/01/03 09:54:25;;;;;;;40.13;3.53;;;;;;;9.49;100.00;97983.50;5078360;28;20600;-64
2022/01/03 09:56:55;;;;;;;46.03;3.00;;;;;;;9.63;100.00;97992.69;5083224;28;20608;-66
2022/01/03 09:59:21;;;;;;;42.20;2.60;;;;;;;9.40;100.00;97979.72;5080248;28;20613;-65
2022/01/03 10:01:48;;;;;;;33.40;2.60;;;;;;;9.44;100.00;97975.47;5079486;28;20603;-65
2022/01/03 10:04:15;;;;;;;44.50;2.80;;;;;;;9.42;100.00;97972.25;5081081;28;20607;-64
2022/01/03 10:06:43;;;;;;;43.10;3.57;;;;;;;9.44;100.00;97966.69;5082799;28;21164;-64
2022/01/03 10:09:10;;;;;;;29.47;3.10;;;;;;;9.44;100.00;97964.78;5081755;28;20625;-65
2022/01/03 10:11:36;;;;;;;81.80;5.17;;;;;;;9.45;100.00;97958.41;5079229;28;20637;-64
2022/01/03 10:14:04;;;;;;;43.17;2.80;;;;;;;9.39;100.00;97966.63;5079150;28;20603;-65
2022/01/03 10:16:31;;;;;;;25.30;1.70;;;;;;;9.46;100.00;97957.38;5070861;28;20615;-65
2022/01/03 10:18:59;;;;;;;68.90;4.07;;;;;;;9.50;100.00;97947.00;5078980;28;20598;-65
2022/01/03 10:21:37;;;;;;;52.90;3.80;;;;;;;9.39;100.00;97948.78;5081984;28;20605;-64
2022/01/03 10:24:05;;;;;;;42.37;3.67;;;;;;;9.24;100.00;97945.97;5078079;28;20636;-65
2022/01/03 10:26:32;;;;;;;31.27;2.27;;;;;;;9.38;100.00;97941.00;5082355;28;20613;-66
2022/01/03 10:29:14;;;;;;;36.30;3.37;;;;;;;9.44;100.00;97951.47;5082264;28;20633;-66
2022/01/03 10:31:42;;;;;;;52.30;2.60;;;;;;;9.58;100.00;97944.66;5072393;28;20632;-65
2022/01/03 10:34:10;;;;;;;35.23;1.73;;;;;;;9.72;100.00;97945.81;5079550;28;21438;-65
2022/01/03 10:36:39;;;;;;;74.40;4.73;;;;;;;9.59;100.00;97943.59;5082479;28;20643;-65
2022/01/03 10:39:14;;;;;;;29.97;1.97;;;;;;;9.54;100.00;97940.91;5081718;28;20659;-66
2022/01/03 10:41:41;;;;;;;32.50;2.07;;;;;;;9.52;100.00;97939.53;5078775;28;20601;-66
2022/01/03 10:44:09;;;;;;;30.63;3.37;;;;;;;9.33;100.00;97941.78;5078687;28;20634;-65
2022/01/03 10:46:38;;;;;;;41.23;3.50;;;;;;;9.46;100.00;97945.91;5082028;28;20613;-64
2022/01/03 10:49:11;;;;;;;57.37;4.23;;;;;;;9.26;100.00;97930.53;5081456;28;20645;-64
2022/01/03 10:51:38;;;;;;;84.43;4.87;;;;;;;9.38;100.00;97938.34;5078494;28;20620;-64
2022/01/03 10:54:09;;;;;;;32.20;2.40;;;;;;;9.34;100.00;97938.06;5074304;28;20625;-64
2022/01/03 10:56:38;;;;;;;25.07;1.40;;;;;;;9.45;100.00;97949.59;5081804;28;20611;-65
2022/01/03 10:59:21;;;;;;;67.43;4.40;;;;;;;9.43;100.00;97951.75;5081130;28;20647;-64
2022/01/03 11:01:53;;;;;;;32.77;1.90;;;;;;;9.43;100.00;97944.56;5078249;28;20610;-65
2022/01/03 11:04:29;;;;;;;47.73;3.07;;;;;;;9.39;100.00;97938.13;5080571;28;20754;-65
2022/01/03 11:13:11;;;;;;;34.87;2.90;;;;;;;9.43;100.00;97952.53;5061970;28;20706;-64
2022/01/03 11:15:40;;;;;;;41.77;2.73;;;;;;;9.39;100.00;97947.97;5071074;28;20680;-64
2022/01/03 11:18:13;;;;;;;24.23;1.67;;;;;;;9.46;100.00;97941.38;5078173;28;20611;-64
2022/01/03 11:20:41;;;;;;;43.80;2.67;;;;;;;9.35;100.00;97934.34;5081314;28;20606;-64
2022/01/03 11:23:08;;;;;;;36.57;3.00;;;;;;;9.45;100.00;97929.09;5076247;28;20610;-64
2022/01/03 11:25:36;;;;;;;104.30;5.77;;;;;;;9.41;100.00;97930.66;5077678;28;20670;-64
2022/01/03 11:28:04;;;;;;;37.17;2.90;;;;;;;9.25;100.00;97918.28;5076866;28;20636;-64
2022/01/03 11:30:32;;;;;;;71.37;3.97;;;;;;;9.49;100.00;97916.06;5069844;28;20653;-64
2022/01/03 11:33:00;;;;;;;29.37;2.30;;;;;;;9.56;100.00;97922.78;5077657;28;20600;-65
2022/01/03 11:35:29;;;;;;;63.10;4.30;;;;;;;9.48;100.00;97917.13;5081062;28;20686;-65
2022/01/03 11:38:00;;;;;;;36.87;2.53;;;;;;;9.53;100.00;97917.16;5081029;28;20617;-65
2022/01/03 11:40:28;;;;;;;17.80;1.53;;;;;;;9.49;100.00;97913.41;5077964;28;20670;-65